Saratoga-Weather Station Historical Data
Daily Summary for February 12, 2019 Units:  Both    English   Metric
Daily Weekly Monthly Yearly Custom
  High: Low: Average:
Temperature: 61.7 °F /  16.5 °C 39.9 °F /  4.4 °C 54.3 °F /  12.4 °C
Dew Point: 60.1 °F /  15.6 °C 34.0 °F /  1.1 °C 53 °F /  11.7 °C
Humidity: 100% 78% 96%
Wind Speed: 8.9mph /  14.3km/h - 0.5mph /  0.8km/h
Wind Gust: 11.0mph /  17.7km/h - -
Wind- - SSE
Pressure: 30.09 in /  1018.8 hPa 29.83 in /  1010 hPa -
Precipitation: 1.37 in /  34.8 mm    
Historical Graphs
 
 
Tabular Data for February 12, 2019
Time Temperature Dew Point Pressure Wind Wind Speed Wind Gust Humidity Rainfall Rate (Hourly) solar
00:04 55.9 °F /  13.3 °C 55.6 °F /  13.1 °C 30.03in /  1016.8hPa Calm   2.0mph /  3.2km/h 99% 0.00in /  0mm meteobridge W/m2
00:09 55.9 °F /  13.3 °C 55.6 °F /  13.1 °C 30.03in /  1016.8hPa Calm     99% 0.00in /  0mm meteobridge W/m2
00:14 55.8 °F /  13.2 °C 55.4 °F /  13 °C 30.03in /  1016.8hPa Calm     99% 0.00in /  0mm meteobridge W/m2
00:19 55.9 °F /  13.3 °C 55.6 °F /  13.1 °C 30.03in /  1016.8hPa Calm     99% 0.00in /  0mm meteobridge W/m2
00:24 56.1 °F /  13.4 °C 55.8 °F /  13.2 °C 30.03in /  1016.8hPa Calm   1.0mph /  1.6km/h 99% 0.00in /  0mm meteobridge W/m2
00:29 56.3 °F /  13.5 °C 55.9 °F /  13.3 °C 30.03in /  1016.8hPa Calm   2.0mph /  3.2km/h 99% 0.00in /  0mm meteobridge W/m2
00:34 56.5 °F /  13.6 °C 56.1 °F /  13.4 °C 30.02in /  1016.5hPa Calm   1.0mph /  1.6km/h 99% 0.00in /  0mm meteobridge W/m2
00:39 56.5 °F /  13.6 °C 56.1 °F /  13.4 °C 30.02in /  1016.5hPa Calm   2.0mph /  3.2km/h 99% 0.01in /  0.25mm meteobridge W/m2
00:44 56.7 °F /  13.7 °C 56.1 °F /  13.4 °C 30.02in /  1016.5hPa Calm   2.0mph /  3.2km/h 98% 0.01in /  0.25mm meteobridge W/m2
00:49 56.7 °F /  13.7 °C 56.1 °F /  13.4 °C 30.02in /  1016.5hPa Calm   2.0mph /  3.2km/h 98% 0.01in /  0.25mm meteobridge W/m2
00:54 56.7 °F /  13.7 °C 56.1 °F /  13.4 °C 30.02in /  1016.5hPa Calm     98% 0.01in /  0.25mm meteobridge W/m2
00:59 56.7 °F /  13.7 °C 55.8 °F /  13.2 °C 30.02in /  1016.5hPa Calm   2.0mph /  3.2km/h 97% 0.01in /  0.25mm meteobridge W/m2
01:04 56.5 °F /  13.6 °C 55.9 °F /  13.3 °C 30.02in /  1016.5hPa Calm   1.0mph /  1.6km/h 98% 0.01in /  0.25mm meteobridge W/m2
01:09 56.5 °F /  13.6 °C 55.9 °F /  13.3 °C 30.02in /  1016.5hPa Calm     98% 0.01in /  0.25mm meteobridge W/m2
01:14 56.5 °F /  13.6 °C 55.9 °F /  13.3 °C 30.02in /  1016.5hPa Calm   4.0mph /  6.4km/h 98% 0.02in /  0.51mm meteobridge W/m2
01:19 56.5 °F /  13.6 °C 55.9 °F /  13.3 °C 30.02in /  1016.5hPa Calm   4.0mph /  6.4km/h 98% 0.02in /  0.51mm meteobridge W/m2
01:24 56.7 °F /  13.7 °C 56.1 °F /  13.4 °C 30.02in /  1016.5hPa Calm   1.0mph /  1.6km/h 98% 0.02in /  0.51mm meteobridge W/m2
01:29 56.5 °F /  13.6 °C 55.9 °F /  13.3 °C 30.01in /  1016.1hPa East 4.0mph /  6.4km/h 7.0mph /  11.3km/h 98% 0.02in /  0.51mm meteobridge W/m2
01:34 56.5 °F /  13.6 °C 55.9 °F /  13.3 °C 30.01in /  1016.1hPa Calm   4.0mph /  6.4km/h 98% 0.03in /  0.76mm meteobridge W/m2
01:39 56.5 °F /  13.6 °C 55.9 °F /  13.3 °C 30.01in /  1016.1hPa Calm   1.0mph /  1.6km/h 98% 0.02in /  0.51mm meteobridge W/m2
01:44 56.5 °F /  13.6 °C 55.9 °F /  13.3 °C 30.01in /  1016.1hPa Calm     98% 0.02in /  0.51mm meteobridge W/m2
01:49 56.5 °F /  13.6 °C 55.9 °F /  13.3 °C 30.01in /  1016.1hPa SE 0.9mph /  1.4km/h 2.0mph /  3.2km/h 98% 0.03in /  0.76mm meteobridge W/m2
01:54 56.5 °F /  13.6 °C 55.9 °F /  13.3 °C 30.01in /  1016.1hPa Calm     98% 0.03in /  0.76mm meteobridge W/m2
01:59 56.5 °F /  13.6 °C 55.9 °F /  13.3 °C 30.01in /  1016.1hPa Calm   2.0mph /  3.2km/h 98% 0.03in /  0.76mm meteobridge W/m2
02:04 56.5 °F /  13.6 °C 56.1 °F /  13.4 °C 30.01in /  1016.1hPa East 0.9mph /  1.4km/h 2.0mph /  3.2km/h 99% 0.04in /  1.02mm meteobridge W/m2
02:09 56.5 °F /  13.6 °C 55.9 °F /  13.3 °C 30.01in /  1016.1hPa Calm   1.0mph /  1.6km/h 98% 0.04in /  1.02mm meteobridge W/m2
02:14 56.3 °F /  13.5 °C 55.8 °F /  13.2 °C 30.01in /  1016.1hPa Calm   2.0mph /  3.2km/h 98% 0.03in /  0.76mm meteobridge W/m2
02:19 56.5 °F /  13.6 °C 55.9 °F /  13.3 °C 30.00in /  1015.8hPa Calm   5.0mph /  8km/h 98% 0.03in /  0.76mm meteobridge W/m2
02:24 56.5 °F /  13.6 °C 55.6 °F /  13.1 °C 30.01in /  1016.1hPa Calm   4.0mph /  6.4km/h 97% 0.03in /  0.76mm meteobridge W/m2
02:29 56.5 °F /  13.6 °C 55.6 °F /  13.1 °C 30.00in /  1015.8hPa SE 2.0mph /  3.2km/h 2.0mph /  3.2km/h 97% 0.03in /  0.76mm meteobridge W/m2
02:34 56.7 °F /  13.7 °C 55.8 °F /  13.2 °C 30.00in /  1015.8hPa Calm   1.0mph /  1.6km/h 97% 0.02in /  0.51mm meteobridge W/m2
02:39 56.5 °F /  13.6 °C 55.6 °F /  13.1 °C 30.01in /  1016.1hPa SE 2.0mph /  3.2km/h 2.0mph /  3.2km/h 97% 0.02in /  0.51mm meteobridge W/m2
02:44 56.1 °F /  13.4 °C 55.2 °F /  12.9 °C 30.00in /  1015.8hPa Calm     97% 0.03in /  0.76mm meteobridge W/m2
02:49 56.1 °F /  13.4 °C 55.2 °F /  12.9 °C 30.00in /  1015.8hPa Calm   1.0mph /  1.6km/h 97% 0.02in /  0.51mm meteobridge W/m2
02:54 55.9 °F /  13.3 °C 55.4 °F /  13 °C 29.99in /  1015.5hPa Calm     98% 0.02in /  0.51mm meteobridge W/m2
02:59 55.6 °F /  13.1 °C 54.7 °F /  12.6 °C 29.99in /  1015.5hPa Calm     97% 0.03in /  0.76mm meteobridge W/m2
03:04 55.0 °F /  12.8 °C 54.1 °F /  12.3 °C 30.00in /  1015.8hPa Calm     97% 0.03in /  0.76mm meteobridge W/m2
03:09 54.9 °F /  12.7 °C 54.0 °F /  12.2 °C 29.99in /  1015.5hPa Calm     97% 0.03in /  0.76mm meteobridge W/m2
03:14 54.7 °F /  12.6 °C 53.8 °F /  12.1 °C 29.99in /  1015.5hPa Calm   2.0mph /  3.2km/h 97% 0.03in /  0.76mm meteobridge W/m2
03:19 54.3 °F /  12.4 °C 53.4 °F /  11.9 °C 29.98in /  1015.1hPa East 2.0mph /  3.2km/h 4.0mph /  6.4km/h 97% 0.03in /  0.76mm meteobridge W/m2
03:24 54.0 °F /  12.2 °C 53.1 °F /  11.7 °C 30.00in /  1015.8hPa Calm   5.0mph /  8km/h 97% 0.03in /  0.76mm meteobridge W/m2
03:29 53.8 °F /  12.1 °C 52.9 °F /  11.6 °C 29.98in /  1015.1hPa East 2.0mph /  3.2km/h 4.0mph /  6.4km/h 97% 0.03in /  0.76mm meteobridge W/m2
03:34 53.6 °F /  12 °C 53.1 °F /  11.7 °C 29.99in /  1015.5hPa Calm     98% 0.03in /  0.76mm meteobridge W/m2
03:39 53.6 °F /  12 °C 53.1 °F /  11.7 °C 29.99in /  1015.5hPa SSE 0.9mph /  1.4km/h 4.0mph /  6.4km/h 98% 0.02in /  0.51mm meteobridge W/m2
03:44 54.3 °F /  12.4 °C 54.0 °F /  12.2 °C 29.99in /  1015.5hPa Calm   2.0mph /  3.2km/h 99% 0.02in /  0.51mm meteobridge W/m2
03:49 55.2 °F /  12.9 °C 54.9 °F /  12.7 °C 29.98in /  1015.1hPa ESE 4.0mph /  6.4km/h 5.0mph /  8km/h 99% 0.02in /  0.51mm meteobridge W/m2
03:54 55.8 °F /  13.2 °C 55.4 °F /  13 °C 29.98in /  1015.1hPa Calm     99% 0.02in /  0.51mm meteobridge W/m2
03:59 55.9 °F /  13.3 °C 55.6 °F /  13.1 °C 29.98in /  1015.1hPa ESE 0.9mph /  1.4km/h 3.0mph /  4.8km/h 99% 0.02in /  0.51mm meteobridge W/m2
04:04 56.1 °F /  13.4 °C 55.8 °F /  13.2 °C 29.98in /  1015.1hPa Calm   4.0mph /  6.4km/h 99% 0.01in /  0.25mm meteobridge W/m2
04:09 56.1 °F /  13.4 °C 55.8 °F /  13.2 °C 29.97in /  1014.8hPa Calm   1.0mph /  1.6km/h 99% 0.02in /  0.51mm meteobridge W/m2
04:14 56.1 °F /  13.4 °C 55.8 °F /  13.2 °C 29.97in /  1014.8hPa Calm     99% 0.03in /  0.76mm meteobridge W/m2
04:19 56.3 °F /  13.5 °C 55.9 °F /  13.3 °C 29.97in /  1014.8hPa Calm   9.0mph /  14.5km/h 99% 0.03in /  0.76mm meteobridge W/m2
04:24 56.5 °F /  13.6 °C 55.9 °F /  13.3 °C 29.97in /  1014.8hPa Calm   8.0mph /  12.9km/h 98% 0.05in /  1.27mm meteobridge W/m2
04:29 56.7 °F /  13.7 °C 56.3 °F /  13.5 °C 29.97in /  1014.8hPa ESE 0.9mph /  1.4km/h 2.0mph /  3.2km/h 99% 0.05in /  1.27mm meteobridge W/m2
04:34 56.7 °F /  13.7 °C 56.1 °F /  13.4 °C 29.96in /  1014.4hPa Calm     98% 0.06in /  1.52mm meteobridge W/m2
04:39 56.7 °F /  13.7 °C 56.1 °F /  13.4 °C 29.96in /  1014.4hPa East 0.9mph /  1.4km/h 4.0mph /  6.4km/h 98% 0.06in /  1.52mm meteobridge W/m2
04:44 56.7 °F /  13.7 °C 56.1 °F /  13.4 °C 29.96in /  1014.4hPa Calm   2.0mph /  3.2km/h 98% 0.07in /  1.78mm meteobridge W/m2
04:49 56.7 °F /  13.7 °C 56.1 °F /  13.4 °C 29.95in /  1014.1hPa Calm     98% 0.07in /  1.78mm meteobridge W/m2
04:54 56.7 °F /  13.7 °C 56.3 °F /  13.5 °C 29.95in /  1014.1hPa Calm     99% 0.09in /  2.29mm meteobridge W/m2
04:59 56.7 °F /  13.7 °C 56.3 °F /  13.5 °C 29.95in /  1014.1hPa Calm   1.0mph /  1.6km/h 99% 0.09in /  2.29mm meteobridge W/m2
05:04 55.8 °F /  13.2 °C 54.1 °F /  12.3 °C 29.96in /  1014.4hPa Calm   1.0mph /  1.6km/h 94% 0.10in /  2.54mm meteobridge W/m2
05:09 54.7 °F /  12.6 °C 53.2 °F /  11.8 °C 29.95in /  1014.1hPa ENE 2.0mph /  3.2km/h 2.0mph /  3.2km/h 95% 0.11in /  2.79mm meteobridge W/m2
05:14 54.0 °F /  12.2 °C 53.1 °F /  11.7 °C 29.95in /  1014.1hPa Calm     97% 0.13in /  3.3mm meteobridge W/m2
05:19 53.8 °F /  12.1 °C 52.9 °F /  11.6 °C 29.95in /  1014.1hPa Calm     97% 0.13in /  3.3mm meteobridge W/m2
05:24 53.2 °F /  11.8 °C 52.3 °F /  11.3 °C 29.95in /  1014.1hPa Calm     97% 0.11in /  2.79mm meteobridge W/m2
05:29 53.1 °F /  11.7 °C 52.2 °F /  11.2 °C 29.95in /  1014.1hPa Calm     97% 0.11in /  2.79mm meteobridge W/m2
05:34 52.7 °F /  11.5 °C 51.8 °F /  11 °C 29.94in /  1013.8hPa Calm   1.0mph /  1.6km/h 97% 0.10in /  2.54mm meteobridge W/m2
05:39 52.5 °F /  11.4 °C 52.0 °F /  11.1 °C 29.95in /  1014.1hPa Calm     98% 0.11in /  2.79mm meteobridge W/m2
05:44 52.5 °F /  11.4 °C 52.0 °F /  11.1 °C 29.94in /  1013.8hPa Calm     98% 0.10in /  2.54mm meteobridge W/m2
05:49 52.3 °F /  11.3 °C 51.8 °F /  11 °C 29.95in /  1014.1hPa Calm     98% 0.09in /  2.29mm meteobridge W/m2
05:54 52.3 °F /  11.3 °C 51.8 °F /  11 °C 29.94in /  1013.8hPa Calm     98% 0.08in /  2.03mm meteobridge W/m2
05:59 52.3 °F /  11.3 °C 51.8 °F /  11 °C 29.94in /  1013.8hPa Calm     98% 0.07in /  1.78mm meteobridge W/m2
06:04 52.3 °F /  11.3 °C 52.0 °F /  11.1 °C 29.94in /  1013.8hPa Calm     99% 0.06in /  1.52mm meteobridge W/m2
06:09 52.3 °F /  11.3 °C 52.0 °F /  11.1 °C 29.94in /  1013.8hPa Calm     99% 0.04in /  1.02mm meteobridge W/m2
06:14 52.5 °F /  11.4 °C 52.2 °F /  11.2 °C 29.94in /  1013.8hPa Calm     99% 0.01in /  0.25mm meteobridge W/m2
06:19 52.5 °F /  11.4 °C 52.2 °F /  11.2 °C 29.94in /  1013.8hPa ENE 0.9mph /  1.4km/h 3.0mph /  4.8km/h 99% 0.01in /  0.25mm meteobridge W/m2
06:24 54.3 °F /  12.4 °C 54.0 °F /  12.2 °C 29.94in /  1013.8hPa Calm   1.0mph /  1.6km/h 99% 0.01in /  0.25mm meteobridge W/m2
06:29 54.7 °F /  12.6 °C 54.7 °F /  12.6 °C 29.94in /  1013.8hPa Calm     100% 0.03in /  0.76mm meteobridge W/m2
06:34 55.8 °F /  13.2 °C 55.8 °F /  13.2 °C 29.93in /  1013.4hPa SE 0.9mph /  1.4km/h 4.0mph /  6.4km/h 100% 0.03in /  0.76mm meteobridge W/m2
06:39 56.7 °F /  13.7 °C 56.7 °F /  13.7 °C 29.94in /  1013.8hPa Calm   2.0mph /  3.2km/h 100% 0.02in /  0.51mm meteobridge W/m2
06:44 56.8 °F /  13.8 °C 56.8 °F /  13.8 °C 29.93in /  1013.4hPa Calm     100% 0.02in /  0.51mm meteobridge W/m2
06:49 56.8 °F /  13.8 °C 56.8 °F /  13.8 °C 29.94in /  1013.8hPa Calm   1.0mph /  1.6km/h 100% 0.02in /  0.51mm meteobridge W/m2
06:54 56.8 °F /  13.8 °C 56.8 °F /  13.8 °C 29.94in /  1013.8hPa Calm   1.0mph /  1.6km/h 100% 0.02in /  0.51mm meteobridge W/m2
06:59 57.0 °F /  13.9 °C 57.0 °F /  13.9 °C 29.93in /  1013.4hPa East 2.0mph /  3.2km/h 4.0mph /  6.4km/h 100% 0.02in /  0.51mm meteobridge W/m2
07:04 57.0 °F /  13.9 °C 57.0 °F /  13.9 °C 29.94in /  1013.8hPa Calm     100% 0.02in /  0.51mm meteobridge W/m2
07:09 57.2 °F /  14 °C 57.2 °F /  14 °C 29.93in /  1013.4hPa East 2.0mph /  3.2km/h 3.0mph /  4.8km/h 100% 0.02in /  0.51mm meteobridge W/m2
07:14 57.4 °F /  14.1 °C 57.4 °F /  14.1 °C 29.93in /  1013.4hPa Calm   1.0mph /  1.6km/h 100% 0.02in /  0.51mm meteobridge W/m2
07:19 57.4 °F /  14.1 °C 57.4 °F /  14.1 °C 29.93in /  1013.4hPa Calm     100% 0.02in /  0.51mm meteobridge W/m2
07:24 57.4 °F /  14.1 °C 57.0 °F /  13.9 °C 29.92in /  1013.1hPa Calm   5.0mph /  8km/h 99% 0.03in /  0.76mm meteobridge W/m2
07:29 57.6 °F /  14.2 °C 57.2 °F /  14 °C 29.92in /  1013.1hPa Calm   1.0mph /  1.6km/h 99% 0.01in /  0.25mm meteobridge W/m2
07:34 57.6 °F /  14.2 °C 57.0 °F /  13.9 °C 29.92in /  1013.1hPa Calm   4.0mph /  6.4km/h 98% 0.01in /  0.25mm meteobridge W/m2
07:39 57.6 °F /  14.2 °C 57.0 °F /  13.9 °C 29.93in /  1013.4hPa SE 4.0mph /  6.4km/h 5.0mph /  8km/h 98% 0.02in /  0.51mm meteobridge W/m2
07:44 57.6 °F /  14.2 °C 57.2 °F /  14 °C 29.93in /  1013.4hPa Calm   2.0mph /  3.2km/h 99% 0.02in /  0.51mm meteobridge W/m2
07:49 57.7 °F /  14.3 °C 57.4 °F /  14.1 °C 29.92in /  1013.1hPa Calm     99% 0.03in /  0.76mm meteobridge W/m2
07:54 57.7 °F /  14.3 °C 57.4 °F /  14.1 °C 29.92in /  1013.1hPa Calm   2.0mph /  3.2km/h 99% 0.03in /  0.76mm meteobridge W/m2
07:59 57.7 °F /  14.3 °C 57.4 °F /  14.1 °C 29.92in /  1013.1hPa East 2.0mph /  3.2km/h 2.0mph /  3.2km/h 99% 0.03in /  0.76mm meteobridge W/m2
08:04 57.9 °F /  14.4 °C 57.6 °F /  14.2 °C 29.92in /  1013.1hPa Calm   1.0mph /  1.6km/h 99% 0.03in /  0.76mm meteobridge W/m2
08:09 57.9 °F /  14.4 °C 57.4 °F /  14.1 °C 29.92in /  1013.1hPa Calm   1.0mph /  1.6km/h 98% 0.03in /  0.76mm meteobridge W/m2
08:14 57.9 °F /  14.4 °C 57.4 °F /  14.1 °C 29.92in /  1013.1hPa Calm     98% 0.03in /  0.76mm meteobridge W/m2
08:19 58.1 °F /  14.5 °C 57.6 °F /  14.2 °C 29.92in /  1013.1hPa ESE 2.0mph /  3.2km/h 3.0mph /  4.8km/h 98% 0.03in /  0.76mm meteobridge W/m2
08:24 58.1 °F /  14.5 °C 57.6 °F /  14.2 °C 29.92in /  1013.1hPa East 2.0mph /  3.2km/h 4.0mph /  6.4km/h 98% 0.02in /  0.51mm meteobridge W/m2
08:29 58.3 °F /  14.6 °C 57.7 °F /  14.3 °C 29.92in /  1013.1hPa SSE 0.9mph /  1.4km/h 1.0mph /  1.6km/h 98% 0.02in /  0.51mm meteobridge W/m2
08:34 58.3 °F /  14.6 °C 57.7 °F /  14.3 °C 29.92in /  1013.1hPa ENE 2.9mph /  4.7km/h 3.0mph /  4.8km/h 98% 0.02in /  0.51mm meteobridge W/m2
08:39 58.5 °F /  14.7 °C 58.1 °F /  14.5 °C 29.91in /  1012.8hPa ESE 2.0mph /  3.2km/h 4.0mph /  6.4km/h 99% 0.01in /  0.25mm meteobridge W/m2
08:44 58.6 °F /  14.8 °C 58.1 °F /  14.5 °C 29.91in /  1012.8hPa Calm   1.0mph /  1.6km/h 98% 0.01in /  0.25mm meteobridge W/m2
08:49 58.8 °F /  14.9 °C 58.5 °F /  14.7 °C 29.92in /  1013.1hPa Calm   1.0mph /  1.6km/h 99% 0.00in /  0mm meteobridge W/m2
08:54 58.8 °F /  14.9 °C 58.5 °F /  14.7 °C 29.91in /  1012.8hPa Calm   1.0mph /  1.6km/h 99% 0.00in /  0mm meteobridge W/m2
08:59 59.0 °F /  15 °C 58.6 °F /  14.8 °C 29.91in /  1012.8hPa Calm   5.0mph /  8km/h 99% 0.00in /  0mm meteobridge W/m2
09:04 59.0 °F /  15 °C 58.5 °F /  14.7 °C 29.91in /  1012.8hPa Calm   4.0mph /  6.4km/h 98% 0.00in /  0mm meteobridge W/m2
09:09 59.2 °F /  15.1 °C 58.6 °F /  14.8 °C 29.91in /  1012.8hPa Calm   2.0mph /  3.2km/h 98% 0.00in /  0mm meteobridge W/m2
09:14 59.2 °F /  15.1 °C 58.6 °F /  14.8 °C 29.91in /  1012.8hPa ESE 4.0mph /  6.4km/h 6.0mph /  9.7km/h 98% 0.00in /  0mm meteobridge W/m2
09:19 59.2 °F /  15.1 °C 58.6 °F /  14.8 °C 29.91in /  1012.8hPa Calm   5.0mph /  8km/h 98% 0.00in /  0mm meteobridge W/m2
09:24 59.4 °F /  15.2 °C 58.8 °F /  14.9 °C 29.91in /  1012.8hPa Calm     98% 0.00in /  0mm meteobridge W/m2
09:29 59.4 °F /  15.2 °C 58.8 °F /  14.9 °C 29.91in /  1012.8hPa Calm   4.0mph /  6.4km/h 98% 0.00in /  0mm meteobridge W/m2
09:34 59.4 °F /  15.2 °C 58.8 °F /  14.9 °C 29.91in /  1012.8hPa Calm     98% 0.00in /  0mm meteobridge W/m2
09:39 59.4 °F /  15.2 °C 58.8 °F /  14.9 °C 29.91in /  1012.8hPa Calm   6.0mph /  9.7km/h 98% 0.00in /  0mm meteobridge W/m2
09:44 59.5 °F /  15.3 °C 59.0 °F /  15 °C 29.90in /  1012.4hPa East 2.0mph /  3.2km/h 7.0mph /  11.3km/h 98% 0.00in /  0mm meteobridge W/m2
09:49 59.5 °F /  15.3 °C 59.0 °F /  15 °C 29.91in /  1012.8hPa ESE 2.0mph /  3.2km/h 5.0mph /  8km/h 98% 0.00in /  0mm meteobridge W/m2
09:54 59.7 °F /  15.4 °C 58.8 °F /  14.9 °C 29.90in /  1012.4hPa ESE 2.0mph /  3.2km/h 4.0mph /  6.4km/h 97% 0.00in /  0mm meteobridge W/m2
09:59 59.7 °F /  15.4 °C 58.8 °F /  14.9 °C 29.90in /  1012.4hPa Calm     97% 0.00in /  0mm meteobridge W/m2
10:04 59.7 °F /  15.4 °C 58.8 °F /  14.9 °C 29.90in /  1012.4hPa SSE 0.9mph /  1.4km/h 4.0mph /  6.4km/h 97% 0.00in /  0mm meteobridge W/m2
10:09 59.7 °F /  15.4 °C 58.8 °F /  14.9 °C 29.90in /  1012.4hPa Calm   2.0mph /  3.2km/h 97% 0.00in /  0mm meteobridge W/m2
10:14 59.7 °F /  15.4 °C 58.8 °F /  14.9 °C 29.90in /  1012.4hPa Calm   1.0mph /  1.6km/h 97% 0.00in /  0mm meteobridge W/m2
10:19 59.7 °F /  15.4 °C 58.8 °F /  14.9 °C 29.90in /  1012.4hPa Calm   1.0mph /  1.6km/h 97% 0.00in /  0mm meteobridge W/m2
10:24 59.7 °F /  15.4 °C 58.8 °F /  14.9 °C 29.89in /  1012.1hPa Calm   4.0mph /  6.4km/h 97% 0.00in /  0mm meteobridge W/m2
10:29 59.9 °F /  15.5 °C 59.0 °F /  15 °C 29.89in /  1012.1hPa Calm   4.0mph /  6.4km/h 97% 0.00in /  0mm meteobridge W/m2
10:34 60.1 °F /  15.6 °C 59.2 °F /  15.1 °C 29.89in /  1012.1hPa ESE 0.9mph /  1.4km/h 7.0mph /  11.3km/h 97% 0.00in /  0mm meteobridge W/m2
10:39 60.3 °F /  15.7 °C 59.4 °F /  15.2 °C 29.89in /  1012.1hPa ESE 4.0mph /  6.4km/h 5.0mph /  8km/h 97% 0.00in /  0mm meteobridge W/m2
10:44 60.4 °F /  15.8 °C 59.5 °F /  15.3 °C 29.89in /  1012.1hPa Calm   4.0mph /  6.4km/h 97% 0.00in /  0mm meteobridge W/m2
10:49 60.6 °F /  15.9 °C 59.5 °F /  15.3 °C 29.89in /  1012.1hPa Calm   1.0mph /  1.6km/h 96% 0.00in /  0mm meteobridge W/m2
10:54 60.6 °F /  15.9 °C 59.5 °F /  15.3 °C 29.89in /  1012.1hPa SE 2.0mph /  3.2km/h 8.0mph /  12.9km/h 96% 0.00in /  0mm meteobridge W/m2
10:59 60.6 °F /  15.9 °C 59.5 °F /  15.3 °C 29.89in /  1012.1hPa Calm   4.0mph /  6.4km/h 96% 0.00in /  0mm meteobridge W/m2
11:04 60.8 °F /  16 °C 59.7 °F /  15.4 °C 29.88in /  1011.7hPa ESE 4.0mph /  6.4km/h 4.0mph /  6.4km/h 96% 0.00in /  0mm meteobridge W/m2
11:09 61.0 °F /  16.1 °C 59.9 °F /  15.5 °C 29.88in /  1011.7hPa ESE 4.0mph /  6.4km/h 5.0mph /  8km/h 96% 0.00in /  0mm meteobridge W/m2
11:14 61.0 °F /  16.1 °C 59.5 °F /  15.3 °C 29.88in /  1011.7hPa SSE 0.9mph /  1.4km/h 4.0mph /  6.4km/h 95% 0.00in /  0mm meteobridge W/m2
11:19 61.2 °F /  16.2 °C 59.7 °F /  15.4 °C 29.87in /  1011.4hPa East 2.0mph /  3.2km/h 4.0mph /  6.4km/h 95% 0.00in /  0mm meteobridge W/m2
11:24 61.2 °F /  16.2 °C 59.7 °F /  15.4 °C 29.87in /  1011.4hPa SE 0.9mph /  1.4km/h 6.0mph /  9.7km/h 95% 0.00in /  0mm meteobridge W/m2
11:29 61.3 °F /  16.3 °C 59.9 °F /  15.5 °C 29.87in /  1011.4hPa East 4.9mph /  7.9km/h 6.0mph /  9.7km/h 95% 0.00in /  0mm meteobridge W/m2
11:34 61.3 °F /  16.3 °C 59.9 °F /  15.5 °C 29.87in /  1011.4hPa Calm   7.0mph /  11.3km/h 95% 0.00in /  0mm meteobridge W/m2
11:39 61.3 °F /  16.3 °C 59.9 °F /  15.5 °C 29.87in /  1011.4hPa ESE 4.0mph /  6.4km/h 5.0mph /  8km/h 95% 0.00in /  0mm meteobridge W/m2
11:44 61.3 °F /  16.3 °C 59.5 °F /  15.3 °C 29.86in /  1011.1hPa Calm   5.0mph /  8km/h 94% 0.00in /  0mm meteobridge W/m2
11:48 61.3 °F /  16.3 °C 59.5 °F /  15.3 °C 29.86in /  1011.1hPa East 2.0mph /  3.2km/h 8.0mph /  12.9km/h 94% 0.00in /  0mm meteobridge W/m2
11:54 61.3 °F /  16.3 °C 59.5 °F /  15.3 °C 29.85in /  1010.7hPa Calm     94% 0.00in /  0mm meteobridge W/m2
11:59 61.3 °F /  16.3 °C 59.5 °F /  15.3 °C 29.85in /  1010.7hPa Calm     94% 0.00in /  0mm meteobridge W/m2
12:04 61.5 °F /  16.4 °C 59.7 °F /  15.4 °C 29.84in /  1010.4hPa Calm     94% 0.00in /  0mm meteobridge W/m2
12:09 61.7 °F /  16.5 °C 59.9 °F /  15.5 °C 29.83in /  1010hPa Calm     94% 0.00in /  0mm meteobridge W/m2
12:14 61.7 °F /  16.5 °C 59.9 °F /  15.5 °C 29.83in /  1010hPa Calm     94% 0.00in /  0mm meteobridge W/m2
12:19 61.5 °F /  16.4 °C 60.1 °F /  15.6 °C 29.83in /  1010hPa Calm     95% 0.02in /  0.51mm meteobridge W/m2
12:24 61.2 °F /  16.2 °C 60.1 °F /  15.6 °C 29.83in /  1010hPa Calm     96% 0.06in /  1.52mm meteobridge W/m2
12:29 60.6 °F /  15.9 °C 59.5 °F /  15.3 °C 29.88in /  1011.7hPa Calm     96% 0.15in /  3.81mm meteobridge W/m2
12:34 59.5 °F /  15.3 °C 57.6 °F /  14.2 °C 29.86in /  1011.1hPa Calm     93% 0.33in /  8.38mm meteobridge W/m2
12:39 58.6 °F /  14.8 °C 57.2 °F /  14 °C 29.88in /  1011.7hPa Calm     95% 0.41in /  10.41mm meteobridge W/m2
12:44 58.3 °F /  14.6 °C 57.4 °F /  14.1 °C 29.88in /  1011.7hPa Calm     97% 0.45in /  11.43mm meteobridge W/m2
12:49 57.9 °F /  14.4 °C 56.8 °F /  13.8 °C 29.88in /  1011.7hPa Calm     96% 0.46in /  11.68mm meteobridge W/m2
12:54 57.6 °F /  14.2 °C 56.7 °F /  13.7 °C 29.88in /  1011.7hPa Calm     97% 0.48in /  12.19mm meteobridge W/m2
12:59 57.2 °F /  14 °C 56.3 °F /  13.5 °C 29.88in /  1011.7hPa Calm     97% 0.49in /  12.45mm meteobridge W/m2
13:04 57.0 °F /  13.9 °C 56.1 °F /  13.4 °C 29.88in /  1011.7hPa Calm     97% 0.50in /  12.7mm meteobridge W/m2
13:09 56.8 °F /  13.8 °C 55.9 °F /  13.3 °C 29.88in /  1011.7hPa Calm     97% 0.52in /  13.21mm meteobridge W/m2
13:14 56.8 °F /  13.8 °C 55.9 °F /  13.3 °C 29.88in /  1011.7hPa Calm     97% 0.53in /  13.46mm meteobridge W/m2
13:19 56.7 °F /  13.7 °C 55.8 °F /  13.2 °C 29.88in /  1011.7hPa Calm     97% 0.52in /  13.21mm meteobridge W/m2
13:24 56.7 °F /  13.7 °C 56.1 °F /  13.4 °C 29.87in /  1011.4hPa Calm     98% 0.48in /  12.19mm meteobridge W/m2
13:29 56.7 °F /  13.7 °C 56.1 °F /  13.4 °C 29.87in /  1011.4hPa Calm     98% 0.40in /  10.16mm meteobridge W/m2
13:34 56.7 °F /  13.7 °C 56.1 °F /  13.4 °C 29.86in /  1011.1hPa Calm     98% 0.22in /  5.59mm meteobridge W/m2
13:39 56.7 °F /  13.7 °C 56.1 °F /  13.4 °C 29.86in /  1011.1hPa Calm     98% 0.15in /  3.81mm meteobridge W/m2
13:44 56.7 °F /  13.7 °C 56.1 °F /  13.4 °C 29.87in /  1011.4hPa Calm     98% 0.12in /  3.05mm meteobridge W/m2
13:49 56.7 °F /  13.7 °C 56.1 °F /  13.4 °C 29.88in /  1011.7hPa Calm     98% 0.13in /  3.3mm meteobridge W/m2
13:54 56.7 °F /  13.7 °C 56.1 °F /  13.4 °C 29.88in /  1011.7hPa Calm     98% 0.13in /  3.3mm meteobridge W/m2
13:59 56.5 °F /  13.6 °C 56.1 °F /  13.4 °C 29.88in /  1011.7hPa Calm     99% 0.13in /  3.3mm meteobridge W/m2
14:04 56.5 °F /  13.6 °C 55.6 °F /  13.1 °C 29.88in /  1011.7hPa Calm     97% 0.12in /  3.05mm meteobridge W/m2
14:09 56.1 °F /  13.4 °C 55.0 °F /  12.8 °C 29.88in /  1011.7hPa Calm     96% 0.11in /  2.79mm meteobridge W/m2
14:14 55.8 °F /  13.2 °C 54.7 °F /  12.6 °C 29.88in /  1011.7hPa Calm     96% 0.11in /  2.79mm meteobridge W/m2
14:19 55.6 °F /  13.1 °C 54.7 °F /  12.6 °C 29.88in /  1011.7hPa Calm     97% 0.11in /  2.79mm meteobridge W/m2
14:24 55.2 °F /  12.9 °C 54.3 °F /  12.4 °C 29.88in /  1011.7hPa Calm     97% 0.12in /  3.05mm meteobridge W/m2
14:29 55.0 °F /  12.8 °C 54.1 °F /  12.3 °C 29.88in /  1011.7hPa Calm     97% 0.13in /  3.3mm meteobridge W/m2
14:34 55.0 °F /  12.8 °C 54.5 °F /  12.5 °C 29.89in /  1012.1hPa Calm     98% 0.14in /  3.56mm meteobridge W/m2
14:39 55.0 °F /  12.8 °C 54.5 °F /  12.5 °C 29.89in /  1012.1hPa Calm     98% 0.15in /  3.81mm meteobridge W/m2
14:44 55.0 °F /  12.8 °C 54.5 °F /  12.5 °C 29.89in /  1012.1hPa Calm     98% 0.15in /  3.81mm meteobridge W/m2
14:49 54.9 °F /  12.7 °C 54.3 °F /  12.4 °C 29.88in /  1011.7hPa Calm     98% 0.14in /  3.56mm meteobridge W/m2
14:54 54.9 °F /  12.7 °C 54.0 °F /  12.2 °C 29.88in /  1011.7hPa Calm     97% 0.13in /  3.3mm meteobridge W/m2
14:59 54.7 °F /  12.6 °C 53.8 °F /  12.1 °C 29.88in /  1011.7hPa Calm     97% 0.14in /  3.56mm meteobridge W/m2
15:04 54.3 °F /  12.4 °C 53.4 °F /  11.9 °C 29.88in /  1011.7hPa Calm     97% 0.14in /  3.56mm meteobridge W/m2
15:08 54.3 °F /  12.4 °C 53.8 °F /  12.1 °C 29.87in /  1011.4hPa Calm     98% 0.14in /  3.56mm meteobridge W/m2
15:14 54.3 °F /  12.4 °C 53.8 °F /  12.1 °C 29.86in /  1011.1hPa Calm     98% 0.14in /  3.56mm meteobridge W/m2
15:19 54.1 °F /  12.3 °C 53.6 °F /  12 °C 29.87in /  1011.4hPa Calm     98% 0.13in /  3.3mm meteobridge W/m2
15:24 54.3 °F /  12.4 °C 53.8 °F /  12.1 °C 29.87in /  1011.4hPa Calm     98% 0.13in /  3.3mm meteobridge W/m2
15:29 54.1 °F /  12.3 °C 53.8 °F /  12.1 °C 29.87in /  1011.4hPa Calm     99% 0.11in /  2.79mm meteobridge W/m2
15:34 54.3 °F /  12.4 °C 54.0 °F /  12.2 °C 29.87in /  1011.4hPa Calm     99% 0.09in /  2.29mm meteobridge W/m2
15:39 54.1 °F /  12.3 °C 53.8 °F /  12.1 °C 29.86in /  1011.1hPa Calm     99% 0.08in /  2.03mm meteobridge W/m2
15:44 54.1 °F /  12.3 °C 53.6 °F /  12 °C 29.86in /  1011.1hPa Calm     98% 0.07in /  1.78mm meteobridge W/m2
15:49 54.1 °F /  12.3 °C 53.6 °F /  12 °C 29.87in /  1011.4hPa Calm     98% 0.07in /  1.78mm meteobridge W/m2
15:54 54.1 °F /  12.3 °C 53.8 °F /  12.1 °C 29.87in /  1011.4hPa Calm     99% 0.06in /  1.52mm meteobridge W/m2
15:59 54.1 °F /  12.3 °C 53.8 °F /  12.1 °C 29.87in /  1011.4hPa Calm     99% 0.04in /  1.02mm meteobridge W/m2
16:04 54.1 °F /  12.3 °C 53.8 °F /  12.1 °C 29.87in /  1011.4hPa Calm     99% 0.04in /  1.02mm meteobridge W/m2
16:09 54.1 °F /  12.3 °C 53.8 °F /  12.1 °C 29.87in /  1011.4hPa Calm     99% 0.03in /  0.76mm meteobridge W/m2
16:14 54.1 °F /  12.3 °C 53.8 °F /  12.1 °C 29.87in /  1011.4hPa Calm     99% 0.04in /  1.02mm meteobridge W/m2
16:19 54.1 °F /  12.3 °C 53.8 °F /  12.1 °C 29.86in /  1011.1hPa Calm     99% 0.05in /  1.27mm meteobridge W/m2
16:24 54.1 °F /  12.3 °C 53.8 °F /  12.1 °C 29.87in /  1011.4hPa Calm     99% 0.04in /  1.02mm meteobridge W/m2
16:29 54.1 °F /  12.3 °C 53.8 °F /  12.1 °C 29.87in /  1011.4hPa Calm     99% 0.04in /  1.02mm meteobridge W/m2
16:34 54.0 °F /  12.2 °C 53.6 °F /  12 °C 29.87in /  1011.4hPa Calm     99% 0.04in /  1.02mm meteobridge W/m2
16:39 54.0 °F /  12.2 °C 53.6 °F /  12 °C 29.87in /  1011.4hPa Calm     99% 0.05in /  1.27mm meteobridge W/m2
16:44 54.0 °F /  12.2 °C 53.6 °F /  12 °C 29.88in /  1011.7hPa Calm     99% 0.05in /  1.27mm meteobridge W/m2
16:49 54.0 °F /  12.2 °C 53.4 °F /  11.9 °C 29.88in /  1011.7hPa Calm     98% 0.04in /  1.02mm meteobridge W/m2
16:54 54.0 °F /  12.2 °C 53.6 °F /  12 °C 29.88in /  1011.7hPa Calm     99% 0.04in /  1.02mm meteobridge W/m2
16:59 54.0 °F /  12.2 °C 53.6 °F /  12 °C 29.88in /  1011.7hPa Calm     99% 0.06in /  1.52mm meteobridge W/m2
17:04 54.0 °F /  12.2 °C 53.6 °F /  12 °C 29.88in /  1011.7hPa Calm     99% 0.06in /  1.52mm meteobridge W/m2
17:09 54.0 °F /  12.2 °C 53.6 °F /  12 °C 29.89in /  1012.1hPa Calm     99% 0.08in /  2.03mm meteobridge W/m2
17:14 54.0 °F /  12.2 °C 53.6 °F /  12 °C 29.90in /  1012.4hPa Calm     99% 0.09in /  2.29mm meteobridge W/m2
17:19 54.0 °F /  12.2 °C 53.6 °F /  12 °C 29.91in /  1012.8hPa Calm     99% 0.11in /  2.79mm meteobridge W/m2
17:24 53.8 °F /  12.1 °C 53.4 °F /  11.9 °C 29.91in /  1012.8hPa Calm     99% 0.19in /  4.83mm meteobridge W/m2
17:29 53.8 °F /  12.1 °C 53.2 °F /  11.8 °C 29.91in /  1012.8hPa Calm     98% 0.22in /  5.59mm meteobridge W/m2
17:34 53.8 °F /  12.1 °C 53.2 °F /  11.8 °C 29.91in /  1012.8hPa Calm     98% 0.24in /  6.1mm meteobridge W/m2
17:39 53.6 °F /  12 °C 53.1 °F /  11.7 °C 29.91in /  1012.8hPa Calm     98% 0.23in /  5.84mm meteobridge W/m2
17:44 53.4 °F /  11.9 °C 53.1 °F /  11.7 °C 29.92in /  1013.1hPa Calm     99% 0.23in /  5.84mm meteobridge W/m2
17:49 53.4 °F /  11.9 °C 53.1 °F /  11.7 °C 29.91in /  1012.8hPa Calm     99% 0.23in /  5.84mm meteobridge W/m2
17:54 53.4 °F /  11.9 °C 53.1 °F /  11.7 °C 29.92in /  1013.1hPa Calm     99% 0.23in /  5.84mm meteobridge W/m2
17:59 53.4 °F /  11.9 °C 53.1 °F /  11.7 °C 29.92in /  1013.1hPa Calm     99% 0.21in /  5.33mm meteobridge W/m2
18:04 53.4 °F /  11.9 °C 53.1 °F /  11.7 °C 29.93in /  1013.4hPa Calm     99% 0.20in /  5.08mm meteobridge W/m2
18:09 53.2 °F /  11.8 °C 52.7 °F /  11.5 °C 29.91in /  1012.8hPa Calm     98% 0.18in /  4.57mm meteobridge W/m2
18:14 53.2 °F /  11.8 °C 52.7 °F /  11.5 °C 29.92in /  1013.1hPa Calm     98% 0.16in /  4.06mm meteobridge W/m2
18:19 53.2 °F /  11.8 °C 52.7 °F /  11.5 °C 29.93in /  1013.4hPa Calm     98% 0.13in /  3.3mm meteobridge W/m2
18:24 53.2 °F /  11.8 °C 52.7 °F /  11.5 °C 29.92in /  1013.1hPa Calm     98% 0.05in /  1.27mm meteobridge W/m2
18:29 53.2 °F /  11.8 °C 52.7 °F /  11.5 °C 29.92in /  1013.1hPa Calm     98% 0.02in /  0.51mm meteobridge W/m2
18:34 53.2 °F /  11.8 °C 52.7 °F /  11.5 °C 29.93in /  1013.4hPa Calm     98% 0.01in /  0.25mm meteobridge W/m2
18:39 53.2 °F /  11.8 °C 52.7 °F /  11.5 °C 29.93in /  1013.4hPa Calm     98% 0.00in /  0mm meteobridge W/m2
18:44 53.2 °F /  11.8 °C 52.7 °F /  11.5 °C 29.93in /  1013.4hPa Calm     98% 0.00in /  0mm meteobridge W/m2
18:49 53.2 °F /  11.8 °C 52.7 °F /  11.5 °C 29.93in /  1013.4hPa Calm     98% 0.00in /  0mm meteobridge W/m2
18:54 53.1 °F /  11.7 °C 52.5 °F /  11.4 °C 29.93in /  1013.4hPa Calm     98% 0.00in /  0mm meteobridge W/m2
18:59 53.1 °F /  11.7 °C 52.5 °F /  11.4 °C 29.93in /  1013.4hPa Calm     98% 0.00in /  0mm meteobridge W/m2
19:04 53.1 °F /  11.7 °C 52.5 °F /  11.4 °C 29.93in /  1013.4hPa Calm     98% 0.00in /  0mm meteobridge W/m2
19:09 52.9 °F /  11.6 °C 52.3 °F /  11.3 °C 29.93in /  1013.4hPa Calm     98% 0.00in /  0mm meteobridge W/m2
19:14 52.9 °F /  11.6 °C 52.3 °F /  11.3 °C 29.92in /  1013.1hPa Calm     98% 0.00in /  0mm meteobridge W/m2
19:19 52.9 °F /  11.6 °C 52.3 °F /  11.3 °C 29.93in /  1013.4hPa Calm     98% 0.00in /  0mm meteobridge W/m2
19:24 52.7 °F /  11.5 °C 51.8 °F /  11 °C 29.94in /  1013.8hPa Calm     97% 0.00in /  0mm meteobridge W/m2
19:29 52.3 °F /  11.3 °C 51.3 °F /  10.7 °C 29.95in /  1014.1hPa Calm     96% 0.00in /  0mm meteobridge W/m2
19:34 52.0 °F /  11.1 °C 50.4 °F /  10.2 °C 29.94in /  1013.8hPa Calm     94% 0.00in /  0mm meteobridge W/m2
19:39 51.6 °F /  10.9 °C 50.0 °F /  10 °C 29.95in /  1014.1hPa Calm     94% 0.00in /  0mm meteobridge W/m2
19:44 51.3 °F /  10.7 °C 49.8 °F /  9.9 °C 29.95in /  1014.1hPa Calm     95% 0.00in /  0mm meteobridge W/m2
19:49 50.9 °F /  10.5 °C 49.5 °F /  9.7 °C 29.96in /  1014.4hPa Calm     95% 0.00in /  0mm meteobridge W/m2
19:54 50.5 °F /  10.3 °C 49.5 °F /  9.7 °C 29.96in /  1014.4hPa Calm     96% 0.00in /  0mm meteobridge W/m2
19:59 50.4 °F /  10.2 °C 49.3 °F /  9.6 °C 29.96in /  1014.4hPa Calm     96% 0.00in /  0mm meteobridge W/m2
20:04 50.2 °F /  10.1 °C 49.1 °F /  9.5 °C 29.96in /  1014.4hPa Calm     96% 0.00in /  0mm meteobridge W/m2
20:09 49.8 °F /  9.9 °C 48.2 °F /  9 °C 29.97in /  1014.8hPa Calm     94% 0.00in /  0mm meteobridge W/m2
20:14 49.6 °F /  9.8 °C 48.6 °F /  9.2 °C 29.97in /  1014.8hPa Calm     96% 0.00in /  0mm meteobridge W/m2
20:19 49.5 °F /  9.7 °C 48.4 °F /  9.1 °C 29.98in /  1015.1hPa Calm     96% 0.00in /  0mm meteobridge W/m2
20:24 49.3 °F /  9.6 °C 48.2 °F /  9 °C 29.98in /  1015.1hPa Calm     96% 0.00in /  0mm meteobridge W/m2
20:29 49.3 °F /  9.6 °C 47.8 °F /  8.8 °C 29.98in /  1015.1hPa Calm     95% 0.00in /  0mm meteobridge W/m2
20:34 48.9 °F /  9.4 °C 47.8 °F /  8.8 °C 29.98in /  1015.1hPa Calm     96% 0.00in /  0mm meteobridge W/m2
20:39 48.9 °F /  9.4 °C 46.9 °F /  8.3 °C 29.99in /  1015.5hPa Calm     93% 0.00in /  0mm meteobridge W/m2
20:44 48.6 °F /  9.2 °C 46.0 °F /  7.8 °C 29.99in /  1015.5hPa Calm     91% 0.00in /  0mm meteobridge W/m2
20:49 48.0 °F /  8.9 °C 44.4 °F /  6.9 °C 30.00in /  1015.8hPa Calm   4.0mph /  6.4km/h 87% 0.00in /  0mm meteobridge W/m2
20:54 47.8 °F /  8.8 °C 44.4 °F /  6.9 °C 30.00in /  1015.8hPa Calm   7.0mph /  11.3km/h 88% 0.00in /  0mm meteobridge W/m2
20:59 47.5 °F /  8.6 °C 43.5 °F /  6.4 °C 30.00in /  1015.8hPa Calm   2.0mph /  3.2km/h 86% 0.00in /  0mm meteobridge W/m2
21:04 46.9 °F /  8.3 °C 42.4 °F /  5.8 °C 30.01in /  1016.1hPa WNW 2.9mph /  4.7km/h 7.0mph /  11.3km/h 84% 0.00in /  0mm meteobridge W/m2
21:09 46.9 °F /  8.3 °C 41.7 °F /  5.4 °C 30.01in /  1016.1hPa WSW 2.9mph /  4.7km/h 11.0mph /  17.7km/h 82% 0.00in /  0mm meteobridge W/m2
21:14 46.8 °F /  8.2 °C 40.6 °F /  4.8 °C 30.01in /  1016.1hPa Calm   10.0mph /  16.1km/h 79% 0.00in /  0mm meteobridge W/m2
21:19 46.4 °F /  8 °C 42.1 °F /  5.6 °C 30.01in /  1016.1hPa NNW 0.9mph /  1.4km/h 3.0mph /  4.8km/h 85% 0.00in /  0mm meteobridge W/m2
21:24 45.9 °F /  7.7 °C 39.7 °F /  4.3 °C 30.02in /  1016.5hPa WSW 8.9mph /  14.3km/h 11.0mph /  17.7km/h 79% 0.00in /  0mm meteobridge W/m2
21:29 45.7 °F /  7.6 °C 39.6 °F /  4.2 °C 30.02in /  1016.5hPa NW 6.0mph /  9.7km/h 6.0mph /  9.7km/h 79% 0.00in /  0mm meteobridge W/m2
21:34 45.1 °F /  7.3 °C 40.8 °F /  4.9 °C 30.03in /  1016.8hPa WNW 4.9mph /  7.9km/h 8.0mph /  12.9km/h 85% 0.00in /  0mm meteobridge W/m2
21:39 45.0 °F /  7.2 °C 38.5 °F /  3.6 °C 30.02in /  1016.5hPa WNW 6.0mph /  9.7km/h 8.0mph /  12.9km/h 78% 0.00in /  0mm meteobridge W/m2
21:44 45.0 °F /  7.2 °C 39.6 °F /  4.2 °C 30.02in /  1016.5hPa West 0.9mph /  1.4km/h 9.0mph /  14.5km/h 81% 0.00in /  0mm meteobridge W/m2
21:49 44.6 °F /  7 °C 39.7 °F /  4.3 °C 30.03in /  1016.8hPa WNW 0.9mph /  1.4km/h 2.0mph /  3.2km/h 83% 0.00in /  0mm meteobridge W/m2
21:54 44.2 °F /  6.8 °C 38.8 °F /  3.8 °C 30.03in /  1016.8hPa NW 0.9mph /  1.4km/h 3.0mph /  4.8km/h 81% 0.00in /  0mm meteobridge W/m2
21:59 44.1 °F /  6.7 °C 38.7 °F /  3.7 °C 30.03in /  1016.8hPa Calm   3.0mph /  4.8km/h 81% 0.00in /  0mm meteobridge W/m2
22:04 43.9 °F /  6.6 °C 39.0 °F /  3.9 °C 30.04in /  1017.2hPa Calm     83% 0.00in /  0mm meteobridge W/m2
22:09 43.5 °F /  6.4 °C 39.0 °F /  3.9 °C 30.05in /  1017.5hPa Calm   1.0mph /  1.6km/h 84% 0.00in /  0mm meteobridge W/m2
22:14 43.5 °F /  6.4 °C 38.5 °F /  3.6 °C 30.06in /  1017.8hPa Calm   1.0mph /  1.6km/h 82% 0.00in /  0mm meteobridge W/m2
22:19 43.3 °F /  6.3 °C 38.5 °F /  3.6 °C 30.06in /  1017.8hPa Calm   3.0mph /  4.8km/h 83% 0.00in /  0mm meteobridge W/m2
22:24 43.2 °F /  6.2 °C 38.7 °F /  3.7 °C 30.07in /  1018.2hPa Calm   1.0mph /  1.6km/h 84% 0.00in /  0mm meteobridge W/m2
22:29 42.8 °F /  6 °C 37.9 °F /  3.3 °C 30.07in /  1018.2hPa Calm     83% 0.00in /  0mm meteobridge W/m2
22:34 42.4 °F /  5.8 °C 37.4 °F /  3 °C 30.07in /  1018.2hPa NW 0.9mph /  1.4km/h 5.0mph /  8km/h 82% 0.00in /  0mm meteobridge W/m2
22:39 42.4 °F /  5.8 °C 37.0 °F /  2.8 °C 30.08in /  1018.5hPa Calm   7.0mph /  11.3km/h 81% 0.00in /  0mm meteobridge W/m2
22:44 42.4 °F /  5.8 °C 37.4 °F /  3 °C 30.07in /  1018.2hPa NW 4.9mph /  7.9km/h 9.0mph /  14.5km/h 82% 0.00in /  0mm meteobridge W/m2
22:49 42.4 °F /  5.8 °C 36.7 °F /  2.6 °C 30.08in /  1018.5hPa NNE 4.0mph /  6.4km/h 6.0mph /  9.7km/h 80% 0.00in /  0mm meteobridge W/m2
22:54 42.3 °F /  5.7 °C 36.9 °F /  2.7 °C 30.07in /  1018.2hPa Calm   2.0mph /  3.2km/h 81% 0.00in /  0mm meteobridge W/m2
22:59 42.3 °F /  5.7 °C 36.1 °F /  2.3 °C 30.08in /  1018.5hPa Calm   1.0mph /  1.6km/h 79% 0.00in /  0mm meteobridge W/m2
23:04 42.1 °F /  5.6 °C 36.7 °F /  2.6 °C 30.08in /  1018.5hPa Calm     81% 0.00in /  0mm meteobridge W/m2
23:09 41.7 °F /  5.4 °C 36.7 °F /  2.6 °C 30.08in /  1018.5hPa Calm     82% 0.00in /  0mm meteobridge W/m2
23:14 41.5 °F /  5.3 °C 35.8 °F /  2.1 °C 30.07in /  1018.2hPa Calm   4.0mph /  6.4km/h 80% 0.00in /  0mm meteobridge W/m2
23:19 41.5 °F /  5.3 °C 35.8 °F /  2.1 °C 30.07in /  1018.2hPa Calm   2.0mph /  3.2km/h 80% 0.00in /  0mm meteobridge W/m2
23:24 41.4 °F /  5.2 °C 35.4 °F /  1.9 °C 30.08in /  1018.5hPa WNW 0.9mph /  1.4km/h 6.0mph /  9.7km/h 79% 0.00in /  0mm meteobridge W/m2
23:29 41.2 °F /  5.1 °C 35.8 °F /  2.1 °C 30.08in /  1018.5hPa NNE 4.0mph /  6.4km/h 4.0mph /  6.4km/h 81% 0.00in /  0mm meteobridge W/m2
23:34 40.8 °F /  4.9 °C 35.8 °F /  2.1 °C 30.08in /  1018.5hPa Calm   2.0mph /  3.2km/h 82% 0.00in /  0mm meteobridge W/m2
23:39 40.6 °F /  4.8 °C 36.0 °F /  2.2 °C 30.08in /  1018.5hPa Calm     83% 0.00in /  0mm meteobridge W/m2
23:44 40.5 °F /  4.7 °C 35.1 °F /  1.7 °C 30.09in /  1018.8hPa Calm   2.0mph /  3.2km/h 81% 0.00in /  0mm meteobridge W/m2
23:49 40.3 °F /  4.6 °C 34.0 °F /  1.1 °C 30.09in /  1018.8hPa Calm   3.0mph /  4.8km/h 78% 0.00in /  0mm meteobridge W/m2
23:53 40.1 °F /  4.5 °C 34.7 °F /  1.5 °C 30.09in /  1018.8hPa Calm   2.0mph /  3.2km/h 81% 0.00in /  0mm meteobridge W/m2
23:59 39.9 °F /  4.4 °C 34.3 °F /  1.3 °C 30.09in /  1018.8hPa Calm   2.0mph /  3.2km/h 80% 0.00in /  0mm meteobridge W/m2
Juneau County Weather
Compliments of Weather Underground - 2.5 mb